Time;durP1;ratioP1;P1;durP2;ratioP2;P2;SDS_P1;SDS_P2;PMS_P1;PMS_P2;Temp;Humidity;BMP_temperature;BMP_pressure;BME280_temperature;BME280_humidity;BME280_pressure;Samples;Min_cycle;Max_cycle;Signal;HPM_P1;HPM_P2
2020/12/20 00:00:58;;;;;;;;;;;;;;;;;;5016133;28;799;-86
2020/12/20 00:03:24;;;;;;;;;;;;;;;;;;5014874;28;1365;-85
2020/12/20 00:05:49;;;;;;;;;;;;;;;;;;5014856;28;1287;-86
2020/12/20 00:08:15;;;;;;;;;;;;;;;;;;5015070;28;1336;-86
2020/12/20 00:10:40;;;;;;;;;;;;;;;;;;5014474;28;1049;-86
2020/12/20 00:13:05;;;;;;;;;;;;;;;;;;5014645;28;1401;-86
2020/12/20 00:15:30;;;;;;;;;;;;;;;;;;5014624;28;1051;-85
2020/12/20 00:17:55;;;;;;;;;;;;;;;;;;5016078;28;1894;-86
2020/12/20 00:20:21;;;;;;;;;;;;;;;;;;5014556;28;1344;-86
2020/12/20 00:22:46;;;;;;;;;;;;;;;;;;5015819;28;1388;-86
2020/12/20 00:25:12;;;;;;;;;;;;;;;;;;5016191;28;759;-86
2020/12/20 00:27:38;;;;;;;;;;;;;;;;;;5014583;28;1426;-86
2020/12/20 00:30:03;;;;;;;;;;;;;;;;;;5014795;28;1196;-86
2020/12/20 00:32:29;;;;;;;;;;;;;;;;;;5016359;28;1418;-86
2020/12/20 00:34:54;;;;;;;;;;;;;;;;;;5014630;28;1232;-86
2020/12/20 00:37:19;;;;;;;;;;;;;;;;;;5014861;28;1236;-86
2020/12/20 00:39:44;;;;;;;;;;;;;;;;;;5014585;28;1870;-86
2020/12/20 00:42:10;;;;;;;;;;;;;;;;;;5013753;28;1301;-86
2020/12/20 00:44:35;;;;;;;;;;;;;;;;;;5016139;28;787;-86
2020/12/20 00:47:02;;;;;;;;;;;;;;;;;;5015856;28;1083;-86
2020/12/20 00:49:28;;;;;;;;;;;;;;;;;;5016964;28;854;-86
2020/12/20 00:51:56;;;;;;;;;;;;;;;;;;5015318;28;1391;-86
2020/12/20 00:54:21;;;;;;;;;;;;;;;;;;5015887;28;1320;-86
2020/12/20 00:56:47;;;;;;;;;;;;;;;;;;5017866;28;953;-85
2020/12/20 00:59:12;;;;;;;;;;;;;;;;;;5016895;28;1882;-86
2020/12/20 01:01:38;;;;;;;;;;;;;;;;;;5015820;28;1329;-85
2020/12/20 01:04:03;;;;;;;;;;;;;;;;;;5015203;28;1080;-85
2020/12/20 01:06:28;;;;;;;;;;;;;;;;;;5013868;28;1338;-86
2020/12/20 01:08:53;;;;;;;;;;;;;;;;;;5015157;28;913;-86
2020/12/20 01:11:19;;;;;;;;;;;;;;;;;;5014875;28;1293;-85
2020/12/20 01:13:45;;;;;;;;;;;;;;;;;;5013557;28;1190;-84
2020/12/20 01:16:18;;;;;;;;;;;;;;;;;;5015173;28;814;-84
2020/12/20 01:18:43;;;;;;;;;;;;;;;;;;5013585;28;1886;-84
2020/12/20 01:21:09;;;;;;;;;;;;;;;;;;5013709;28;1467;-84
2020/12/20 01:23:34;;;;;;;;;;;;;;;;;;5015044;28;1390;-84
2020/12/20 01:25:59;;;;;;;;;;;;;;;;;;5014705;28;825;-84
2020/12/20 01:28:26;;;;;;;;;;;;;;;;;;5014686;28;778;-84
2020/12/20 01:30:52;;;;;;;;;;;;;;;;;;5013570;28;862;-84
2020/12/20 01:33:17;;;;;;;;;;;;;;;;;;5013510;28;1358;-84
2020/12/20 01:35:42;;;;;;;;;;;;;;;;;;5014872;28;873;-84
2020/12/20 01:38:07;;;;;;;;;;;;;;;;;;5014499;28;1898;-84
2020/12/20 01:40:33;;;;;;;;;;;;;;;;;;5014351;28;897;-84
2020/12/20 01:42:58;;;;;;;;;;;;;;;;;;5013116;28;1286;-84
2020/12/20 01:45:23;;;;;;;;;;;;;;;;;;5014502;28;806;-84
2020/12/20 01:47:49;;;;;;;;;;;;;;;;;;5013397;28;1149;-84
2020/12/20 01:50:15;;;;;;;;;;;;;;;;;;5013044;28;1186;-84
2020/12/20 01:52:40;;;;;;;;;;;;;;;;;;5014150;28;1376;-85
2020/12/20 01:55:07;;;;;;;;;;;;;;;;;;5013072;28;831;-84
2020/12/20 01:57:33;;;;;;;;;;;;;;;;;;5014293;28;910;-84
2020/12/20 01:59:59;;;;;;;;;;;;;;;;;;5014247;28;1886;-85
2020/12/20 02:02:24;;;;;;;;;;;;;;;;;;5013009;28;1450;-84
2020/12/20 02:04:49;;;;;;;;;;;;;;;;;;5014362;28;826;-85
2020/12/20 02:07:15;;;;;;;;;;;;;;;;;;5014179;28;1020;-85
2020/12/20 02:09:40;;;;;;;;;;;;;;;;;;5012763;28;1318;-84
2020/12/20 02:12:06;;;;;;;;;;;;;;;;;;5014138;28;1302;-85
2020/12/20 02:14:31;;;;;;;;;;;;;;;;;;5015496;28;933;-84
2020/12/20 02:16:57;;;;;;;;;;;;;;;;;;5014354;28;1001;-85
2020/12/20 02:19:23;;;;;;;;;;;;;;;;;;5012843;28;1898;-85
2020/12/20 02:21:48;;;;;;;;;;;;;;;;;;5012902;28;1356;-84
2020/12/20 02:24:14;;;;;;;;;;;;;;;;;;5013437;28;1333;-85
2020/12/20 02:26:39;;;;;;;;;;;;;;;;;;5014079;28;996;-84
2020/12/20 02:29:04;;;;;;;;;;;;;;;;;;5012862;28;1326;-84
2020/12/20 02:31:30;;;;;;;;;;;;;;;;;;5013926;28;1389;-84
2020/12/20 02:33:56;;;;;;;;;;;;;;;;;;5012886;28;1449;-85
2020/12/20 02:36:21;;;;;;;;;;;;;;;;;;5012828;28;1192;-84
2020/12/20 02:38:46;;;;;;;;;;;;;;;;;;5013789;28;1943;-84
2020/12/20 02:41:11;;;;;;;;;;;;;;;;;;5013678;28;957;-85
2020/12/20 02:43:39;;;;;;;;;;;;;;;;;;5012793;28;1388;-84
2020/12/20 02:46:04;;;;;;;;;;;;;;;;;;5014670;28;865;-84
2020/12/20 02:48:30;;;;;;;;;;;;;;;;;;5013102;28;1228;-84
2020/12/20 02:50:55;;;;;;;;;;;;;;;;;;5014274;28;897;-84
2020/12/20 02:53:20;;;;;;;;;;;;;;;;;;5013052;28;1488;-85
2020/12/20 02:55:46;;;;;;;;;;;;;;;;;;5014320;28;897;-85
2020/12/20 02:58:11;;;;;;;;;;;;;;;;;;5012960;28;1981;-85
2020/12/20 03:00:36;;;;;;;;;;;;;;;;;;5023079;28;1410;-84
2020/12/20 03:03:02;;;;;;;;;;;;;;;;;;5034050;28;1311;-85
2020/12/20 03:05:27;;;;;;;;;;;;;;;;;;5034383;28;814;-85
2020/12/20 03:07:52;;;;;;;;;;;;;;;;;;5037597;28;849;-84
2020/12/20 03:10:17;;;;;;;;;;;;;;;;;;5036130;28;1175;-84
2020/12/20 03:12:44;;;;;;;;;;;;;;;;;;5036227;28;1432;-85
2020/12/20 03:15:09;;;;;;;;;;;;;;;;;;5037506;28;872;-84
2020/12/20 03:17:34;;;;;;;;;;;;;;;;;;5037570;28;782;-84
2020/12/20 03:20:00;;;;;;;;;;;;;;;;;;5037202;28;1952;-84
2020/12/20 03:22:25;;;;;;;;;;;;;;;;;;5036123;28;1379;-84
2020/12/20 03:24:50;;;;;;;;;;;;;;;;;;5035991;28;1464;-84
2020/12/20 03:27:15;;;;;;;;;;;;;;;;;;5036328;28;1376;-85
2020/12/20 03:29:41;;;;;;;;;;;;;;;;;;5037122;28;869;-84
2020/12/20 03:32:06;;;;;;;;;;;;;;;;;;5037179;28;1414;-84
2020/12/20 03:34:31;;;;;;;;;;;;;;;;;;5036102;28;1192;-85
2020/12/20 03:36:56;;;;;;;;;;;;;;;;;;5037123;28;1237;-85
2020/12/20 03:39:22;;;;;;;;;;;;;;;;;;5035545;28;1902;-85
2020/12/20 03:41:47;;;;;;;;;;;;;;;;;;5036165;28;1439;-85
2020/12/20 03:44:12;;;;;;;;;;;;;;;;;;5037203;28;834;-84
2020/12/20 03:46:38;;;;;;;;;;;;;;;;;;5035724;28;936;-85
2020/12/20 03:49:03;;;;;;;;;;;;;;;;;;5036853;28;806;-84
2020/12/20 03:51:29;;;;;;;;;;;;;;;;;;5035433;28;1309;-84
2020/12/20 03:53:54;;;;;;;;;;;;;;;;;;5035753;28;1089;-85
2020/12/20 03:56:19;;;;;;;;;;;;;;;;;;5035476;28;1358;-84
2020/12/20 03:58:44;;;;;;;;;;;;;;;;;;5035304;28;1953;-84
2020/12/20 04:01:10;;;;;;;;;;;;;;;;;;5035531;28;1208;-84
2020/12/20 04:03:35;;;;;;;;;;;;;;;;;;5035561;28;1385;-84
2020/12/20 04:06:00;;;;;;;;;;;;;;;;;;5035298;28;862;-84
2020/12/20 04:08:26;;;;;;;;;;;;;;;;;;5035310;28;1360;-84
2020/12/20 04:10:51;;;;;;;;;;;;;;;;;;5034966;28;1540;-84
2020/12/20 04:13:16;;;;;;;;;;;;;;;;;;5036386;28;1352;-85
2020/12/20 04:15:41;;;;;;;;;;;;;;;;;;5035314;28;1260;-84
2020/12/20 04:18:07;;;;;;;;;;;;;;;;;;5035267;28;1894;-85
2020/12/20 04:20:32;;;;;;;;;;;;;;;;;;5034829;28;1345;-85
2020/12/20 04:22:57;;;;;;;;;;;;;;;;;;5035204;28;1310;-84
2020/12/20 04:25:22;;;;;;;;;;;;;;;;;;5034859;28;1408;-85
2020/12/20 04:27:48;;;;;;;;;;;;;;;;;;5034904;28;1218;-85
2020/12/20 04:30:14;;;;;;;;;;;;;;;;;;5035978;28;821;-85
2020/12/20 04:32:39;;;;;;;;;;;;;;;;;;5035284;28;1433;-85
2020/12/20 04:35:04;;;;;;;;;;;;;;;;;;5036123;28;802;-84
2020/12/20 04:37:30;;;;;;;;;;;;;;;;;;5035959;28;908;-84
2020/12/20 04:39:55;;;;;;;;;;;;;;;;;;5034582;28;1955;-84
2020/12/20 04:42:20;;;;;;;;;;;;;;;;;;5035096;28;1360;-85
2020/12/20 04:44:45;;;;;;;;;;;;;;;;;;5034913;28;1181;-84
2020/12/20 04:47:12;;;;;;;;;;;;;;;;;;5035094;28;1078;-84
2020/12/20 04:49:38;;;;;;;;;;;;;;;;;;5035779;28;829;-84
2020/12/20 04:52:03;;;;;;;;;;;;;;;;;;5035758;28;1307;-84
2020/12/20 04:54:29;;;;;;;;;;;;;;;;;;5035627;28;801;-84
2020/12/20 04:56:54;;;;;;;;;;;;;;;;;;5035875;28;770;-84
2020/12/20 04:59:20;;;;;;;;;;;;;;;;;;5035418;28;1894;-84
2020/12/20 05:01:45;;;;;;;;;;;;;;;;;;5034400;28;1391;-84
2020/12/20 05:04:10;;;;;;;;;;;;;;;;;;5034215;28;928;-84
2020/12/20 05:06:36;;;;;;;;;;;;;;;;;;5035482;28;924;-84
2020/12/20 05:09:05;;;;;;;;;;;;;;;;;;5034040;28;1307;-84
2020/12/20 05:11:36;;;;;;;;;;;;;;;;;;5033885;28;1326;-84
2020/12/20 05:14:02;;;;;;;;;;;;;;;;;;5034051;28;1373;-84
2020/12/20 05:16:31;;;;;;;;;;;;;;;;;;5034105;28;1332;-84
2020/12/20 05:18:56;;;;;;;;;;;;;;;;;;5035242;28;1895;-84
2020/12/20 05:21:26;;;;;;;;;;;;;;;;;;5034922;28;1385;-84
2020/12/20 05:23:51;;;;;;;;;;;;;;;;;;5033840;28;953;-84
2020/12/20 05:26:23;;;;;;;;;;;;;;;;;;5033917;28;1223;-85
2020/12/20 05:28:48;;;;;;;;;;;;;;;;;;5033371;28;818;-84
2020/12/20 05:31:13;;;;;;;;;;;;;;;;;;5033569;28;1298;-84
2020/12/20 05:33:38;;;;;;;;;;;;;;;;;;5035014;28;813;-85
2020/12/20 05:36:07;;;;;;;;;;;;;;;;;;5034912;28;901;-84
2020/12/20 05:38:33;;;;;;;;;;;;;;;;;;5033887;28;1898;-84
2020/12/20 05:40:58;;;;;;;;;;;;;;;;;;5034877;28;834;-84
2020/12/20 05:43:24;;;;;;;;;;;;;;;;;;5034774;28;1326;-84
2020/12/20 05:45:49;;;;;;;;;;;;;;;;;;5033512;28;924;-84
2020/12/20 05:48:16;;;;;;;;;;;;;;;;;;5033827;28;1356;-85
2020/12/20 05:50:51;;;;;;;;;;;;;;;;;;5034579;28;869;-84
2020/12/20 05:53:21;;;;;;;;;;;;;;;;;;5033365;28;1352;-84
2020/12/20 05:55:46;;;;;;;;;;;;;;;;;;5035031;28;810;-84
2020/12/20 05:58:12;;;;;;;;;;;;;;;;;;5034575;28;1955;-84
2020/12/20 06:00:38;;;;;;;;;;;;;;;;;;5033158;28;964;-84
2020/12/20 06:03:04;;;;;;;;;;;;;;;;;;5033297;28;1995;-84
2020/12/20 06:05:33;;;;;;;;;;;;;;;;;;5034561;28;826;-85
2020/12/20 06:08:02;;;;;;;;;;;;;;;;;;5033631;28;1148;-85
2020/12/20 06:10:31;;;;;;;;;;;;;;;;;;5034406;28;794;-85
2020/12/20 06:12:56;;;;;;;;;;;;;;;;;;5034230;28;1397;-85
2020/12/20 06:15:29;;;;;;;;;;;;;;;;;;5033516;28;1241;-84
2020/12/20 06:17:55;;;;;;;;;;;;;;;;;;5034349;28;837;-83
2020/12/20 06:20:28;;;;;;;;;;;;;;;;;;5032990;28;1901;-84
2020/12/20 06:22:53;;;;;;;;;;;;;;;;;;5033182;28;1605;-84
2020/12/20 06:25:23;;;;;;;;;;;;;;;;;;5034450;28;802;-84
2020/12/20 06:27:48;;;;;;;;;;;;;;;;;;5034384;28;982;-84
2020/12/20 06:30:14;;;;;;;;;;;;;;;;;;5032916;28;2273;-84
2020/12/20 06:32:43;;;;;;;;;;;;;;;;;;5033296;28;1425;-85
2020/12/20 06:35:14;;;;;;;;;;;;;;;;;;5034412;28;826;-84
2020/12/20 06:37:43;;;;;;;;;;;;;;;;;;5034555;28;755;-84
2020/12/20 06:40:10;;;;;;;;;;;;;;;;;;5035338;28;1959;-84
2020/12/20 06:42:39;;;;;;;;;;;;;;;;;;5036828;28;1316;-85
2020/12/20 06:45:18;;;;;;;;;;;;;;;;;;5036839;28;1320;-85
2020/12/20 06:47:48;;;;;;;;;;;;;;;;;;5038054;28;880;-84
2020/12/20 06:50:13;;;;;;;;;;;;;;;;;;5036908;28;885;-84
2020/12/20 06:52:45;;;;;;;;;;;;;;;;;;5037917;28;1405;-84
2020/12/20 06:55:12;;;;;;;;;;;;;;;;;;5036636;28;1289;-84
2020/12/20 06:57:56;;;;;;;;;;;;;;;;;;5037817;28;841;-84
2020/12/20 07:00:37;;;;;;;;;;;;;;;;;;5037605;28;1878;-84
2020/12/20 07:03:02;;;;;;;;;;;;;;;;;;5036899;28;1368;-84
2020/12/20 07:05:30;;;;;;;;;;;;;;;;;;5036881;28;874;-85
2020/12/20 07:08:22;;;;;;;;;;;;;;;;;;5036312;28;1206;-85
2020/12/20 07:10:52;;;;;;;;;;;;;;;;;;5034345;28;1198;-85
2020/12/20 07:13:33;;;;;;;;;;;;;;;;;;5037720;28;1283;-85
2020/12/20 07:16:04;;;;;;;;;;;;;;;;;;5036527;28;1206;-85
2020/12/20 07:18:47;;;;;;;;;;;;;;;;;;5037462;28;1953;-84
2020/12/20 07:21:18;;;;;;;;;;;;;;;;;;5037382;28;854;-85
2020/12/20 07:23:46;;;;;;;;;;;;;;;;;;5036437;28;1234;-84
2020/12/20 07:26:11;;;;;;;;;;;;;;;;;;5036170;28;1614;-84
2020/12/20 07:28:37;;;;;;;;;;;;;;;;;;5037203;28;901;-84
2020/12/20 07:31:02;;;;;;;;;;;;;;;;;;5035874;28;1229;-84
2020/12/20 07:33:27;;;;;;;;;;;;;;;;;;5037189;28;1431;-86
2020/12/20 07:35:53;;;;;;;;;;;;;;;;;;5036161;28;1233;-85
2020/12/20 07:38:18;;;;;;;;;;;;;;;;;;5037279;28;1947;-85
2020/12/20 07:40:43;;;;;;;;;;;;;;;;;;5036075;28;1333;-85
2020/12/20 07:43:09;;;;;;;;;;;;;;;;;;5035617;28;1319;-86
2020/12/20 07:45:34;;;;;;;;;;;;;;;;;;5035633;28;1210;-85
2020/12/20 07:47:59;;;;;;;;;;;;;;;;;;5035599;28;1282;-85
2020/12/20 07:50:25;;;;;;;;;;;;;;;;;;5036318;28;988;-85
2020/12/20 07:52:50;;;;;;;;;;;;;;;;;;5036878;28;1413;-85
2020/12/20 07:55:16;;;;;;;;;;;;;;;;;;5035554;28;1213;-85
2020/12/20 07:57:52;;;;;;;;;;;;;;;;;;5035342;28;1367;-86
2020/12/20 08:00:17;;;;;;;;;;;;;;;;;;5035221;28;1956;-85
2020/12/20 08:02:43;;;;;;;;;;;;;;;;;;5035311;28;1456;-85
2020/12/20 08:05:09;;;;;;;;;;;;;;;;;;5035313;28;1418;-85
2020/12/20 08:07:35;;;;;;;;;;;;;;;;;;5035353;28;1252;-85
2020/12/20 08:10:00;;;;;;;;;;;;;;;;;;5036366;28;928;-85
2020/12/20 08:12:26;;;;;;;;;;;;;;;;;;5035043;28;1753;-85
2020/12/20 08:15:07;;;;;;;;;;;;;;;;;;5035224;28;1098;-84
2020/12/20 08:17:34;;;;;;;;;;;;;;;;;;5035370;28;948;-84
2020/12/20 08:20:06;;;;;;;;;;;;;;;;;;5035006;28;1890;-85
2020/12/20 08:22:32;;;;;;;;;;;;;;;;;;5035009;28;1289;-85
2020/12/20 08:24:58;;;;;;;;;;;;;;;;;;5034957;28;1301;-85
2020/12/20 08:27:25;;;;;;;;;;;;;;;;;;5034899;28;818;-85
2020/12/20 08:29:52;;;;;;;;;;;;;;;;;;5035055;28;1615;-85
2020/12/20 08:32:22;;;;;;;;;;;;;;;;;;5034817;28;1336;-84
2020/12/20 08:34:48;;;;;;;;;;;;;;;;;;5034880;28;833;-84
2020/12/20 08:37:17;;;;;;;;;;;;;;;;;;5034737;28;1373;-84
2020/12/20 08:39:43;;;;;;;;;;;;;;;;;;5035712;28;1936;-84
2020/12/20 08:42:12;;;;;;;;;;;;;;;;;;5034657;28;1344;-84
2020/12/20 08:44:38;;;;;;;;;;;;;;;;;;5034646;28;1121;-84
2020/12/20 08:47:08;;;;;;;;;;;;;;;;;;5035039;28;1297;-84
2020/12/20 08:49:33;;;;;;;;;;;;;;;;;;5034573;28;1316;-84
2020/12/20 08:52:12;;;;;;;;;;;;;;;;;;5034319;28;1282;-84
2020/12/20 08:54:38;;;;;;;;;;;;;;;;;;5034509;28;1225;-85
2020/12/20 08:57:05;;;;;;;;;;;;;;;;;;5034388;28;1108;-85
2020/12/20 08:59:31;;;;;;;;;;;;;;;;;;5034501;28;1894;-85
2020/12/20 09:01:58;;;;;;;;;;;;;;;;;;5034090;28;1351;-84
2020/12/20 09:04:23;;;;;;;;;;;;;;;;;;5034475;28;1218;-84
2020/12/20 09:06:57;;;;;;;;;;;;;;;;;;5034776;28;1297;-84
2020/12/20 09:09:23;;;;;;;;;;;;;;;;;;5035810;28;984;-84
2020/12/20 09:11:49;;;;;;;;;;;;;;;;;;5035943;28;1354;-84
2020/12/20 09:14:14;;;;;;;;;;;;;;;;;;5035790;28;853;-84
2020/12/20 09:16:40;;;;;;;;;;;;;;;;;;5035826;28;890;-84
2020/12/20 09:19:08;;;;;;;;;;;;;;;;;;5038948;28;1953;-85
2020/12/20 09:21:34;;;;;;;;;;;;;;;;;;5039640;28;1391;-85
2020/12/20 09:23:59;;;;;;;;;;;;;;;;;;5042966;28;834;-85
2020/12/20 09:26:24;;;;;;;;;;;;;;;;;;5044188;28;897;-85
2020/12/20 09:28:49;;;;;;;;;;;;;;;;;;5041112;28;889;-84
2020/12/20 09:31:18;;;;;;;;;;;;;;;;;;5036896;28;1280;-85
2020/12/20 09:33:50;;;;;;;;;;;;;;;;;;5033856;28;1216;-84
2020/12/20 09:36:25;;;;;;;;;;;;;;;;;;5036342;28;913;-85
2020/12/20 09:38:54;;;;;;;;;;;;;;;;;;5034938;28;1890;-85
2020/12/20 09:41:21;;;;;;;;;;;;;;;;;;5035026;28;1284;-84
2020/12/20 09:43:47;;;;;;;;;;;;;;;;;;5035005;28;893;-85
2020/12/20 09:46:22;;;;;;;;;;;;;;;;;;5033514;28;1439;-84
2020/12/20 09:48:47;;;;;;;;;;;;;;;;;;5034811;28;953;-85
2020/12/20 09:51:12;;;;;;;;;;;;;;;;;;5033317;28;1280;-86
2020/12/20 09:53:38;;;;;;;;;;;;;;;;;;5033459;28;1294;-85
2020/12/20 09:56:03;;;;;;;;;;;;;;;;;;5033411;28;1175;-85
2020/12/20 09:58:29;;;;;;;;;;;;;;;;;;5034528;28;1957;-85
2020/12/20 10:00:54;;;;;;;;;;;;;;;;;;5034311;28;1018;-84
2020/12/20 10:03:19;;;;;;;;;;;;;;;;;;5033257;28;1368;-84
2020/12/20 10:05:45;;;;;;;;;;;;;;;;;;5034852;28;861;-85
2020/12/20 10:08:11;;;;;;;;;;;;;;;;;;5033308;28;1496;-84
2020/12/20 10:10:36;;;;;;;;;;;;;;;;;;5033192;28;870;-85
2020/12/20 10:13:02;;;;;;;;;;;;;;;;;;5033222;28;1363;-85
2020/12/20 10:15:27;;;;;;;;;;;;;;;;;;5037081;28;1235;-85
2020/12/20 10:17:53;;;;;;;;;;;;;;;;;;5038800;28;850;-85
2020/12/20 10:20:18;;;;;;;;;;;;;;;;;;5037056;28;1894;-85
2020/12/20 10:22:44;;;;;;;;;;;;;;;;;;5037306;28;1366;-85
2020/12/20 10:25:09;;;;;;;;;;;;;;;;;;5038641;28;853;-86
2020/12/20 10:27:34;;;;;;;;;;;;;;;;;;5037285;28;1986;-86
2020/12/20 10:29:59;;;;;;;;;;;;;;;;;;5038207;28;797;-86
2020/12/20 10:32:25;;;;;;;;;;;;;;;;;;5037552;28;1476;-85
2020/12/20 10:34:50;;;;;;;;;;;;;;;;;;5037165;28;1179;-85
2020/12/20 10:37:16;;;;;;;;;;;;;;;;;;5037347;28;1081;-85
2020/12/20 10:39:41;;;;;;;;;;;;;;;;;;5036887;28;1898;-85
2020/12/20 10:42:07;;;;;;;;;;;;;;;;;;5037132;28;1321;-85
2020/12/20 10:44:32;;;;;;;;;;;;;;;;;;5036911;28;1195;-86
2020/12/20 10:46:57;;;;;;;;;;;;;;;;;;5036817;28;1143;-86
2020/12/20 10:49:22;;;;;;;;;;;;;;;;;;5038207;28;806;-88
2020/12/20 10:51:52;;;;;;;;;;;;;;;;;;5037144;28;1297;-85
2020/12/20 10:54:17;;;;;;;;;;;;;;;;;;5036728;28;1183;-86
2020/12/20 10:56:45;;;;;;;;;;;;;;;;;;5037950;28;1281;-86
2020/12/20 10:59:10;;;;;;;;;;;;;;;;;;5037617;28;1956;-86
2020/12/20 11:01:35;;;;;;;;;;;;;;;;;;5037569;28;1341;-86
2020/12/20 11:04:00;;;;;;;;;;;;;;;;;;5036481;28;1288;-86
2020/12/20 11:06:26;;;;;;;;;;;;;;;;;;5036594;28;1403;-86
2020/12/20 11:08:51;;;;;;;;;;;;;;;;;;5036443;28;1241;-86
2020/12/20 11:11:17;;;;;;;;;;;;;;;;;;5036224;28;1310;-86
2020/12/20 11:13:45;;;;;;;;;;;;;;;;;;5036625;28;1429;-86
2020/12/20 11:16:11;;;;;;;;;;;;;;;;;;5036326;28;1412;-85
2020/12/20 11:18:37;;;;;;;;;;;;;;;;;;5036473;28;1948;-85
2020/12/20 11:21:02;;;;;;;;;;;;;;;;;;5036062;28;1027;-85
2020/12/20 11:23:28;;;;;;;;;;;;;;;;;;5037320;28;1328;-87
2020/12/20 11:25:53;;;;;;;;;;;;;;;;;;5035513;28;1203;-85
2020/12/20 11:28:18;;;;;;;;;;;;;;;;;;5036112;28;1257;-85
2020/12/20 11:30:46;;;;;;;;;;;;;;;;;;5037220;28;845;-86
2020/12/20 11:33:11;;;;;;;;;;;;;;;;;;5036216;28;1347;-86
2020/12/20 11:35:36;;;;;;;;;;;;;;;;;;5036023;28;1037;-86
2020/12/20 11:38:01;;;;;;;;;;;;;;;;;;5035868;28;1015;-86
2020/12/20 11:40:27;;;;;;;;;;;;;;;;;;5035679;28;1886;-86
2020/12/20 11:42:52;;;;;;;;;;;;;;;;;;5036900;28;1308;-86
2020/12/20 11:45:17;;;;;;;;;;;;;;;;;;5036111;28;1262;-86
2020/12/20 11:47:42;;;;;;;;;;;;;;;;;;5035717;28;1214;-86
2020/12/20 11:50:08;;;;;;;;;;;;;;;;;;5035672;28;1126;-86
2020/12/20 11:52:34;;;;;;;;;;;;;;;;;;5036888;28;1403;-86
2020/12/20 11:54:59;;;;;;;;;;;;;;;;;;5036961;28;1058;-86
2020/12/20 11:57:24;;;;;;;;;;;;;;;;;;5035394;28;1092;-86
2020/12/20 11:59:50;;;;;;;;;;;;;;;;;;5036550;28;1949;-86
2020/12/20 12:02:15;;;;;;;;;;;;;;;;;;5037043;28;1435;-86
2020/12/20 12:04:40;;;;;;;;;;;;;;;;;;5036983;28;838;-86
2020/12/20 12:07:06;;;;;;;;;;;;;;;;;;5036697;28;968;-86
2020/12/20 12:09:31;;;;;;;;;;;;;;;;;;5036696;28;833;-86
2020/12/20 12:11:56;;;;;;;;;;;;;;;;;;5035178;28;1324;-87
2020/12/20 12:14:21;;;;;;;;;;;;;;;;;;5036730;28;810;-87
2020/12/20 12:16:47;;;;;;;;;;;;;;;;;;5035711;28;837;-87
2020/12/20 12:19:14;;;;;;;;;;;;;;;;;;5036410;28;1961;-86
2020/12/20 12:21:39;;;;;;;;;;;;;;;;;;5035195;28;1382;-86
2020/12/20 12:24:04;;;;;;;;;;;;;;;;;;5036475;28;917;-86
2020/12/20 12:26:30;;;;;;;;;;;;;;;;;;5034941;28;1162;-86
2020/12/20 12:28:55;;;;;;;;;;;;;;;;;;5035654;28;1484;-86
2020/12/20 12:31:20;;;;;;;;;;;;;;;;;;5034913;28;1290;-86
2020/12/20 12:33:45;;;;;;;;;;;;;;;;;;5034517;28;1430;-86
2020/12/20 12:36:11;;;;;;;;;;;;;;;;;;5034823;28;907;-86
2020/12/20 12:38:36;;;;;;;;;;;;;;;;;;5034901;28;1957;-87
2020/12/20 12:41:01;;;;;;;;;;;;;;;;;;5034732;28;1318;-86
2020/12/20 12:43:27;;;;;;;;;;;;;;;;;;5036019;28;1379;-87
2020/12/20 12:45:52;;;;;;;;;;;;;;;;;;5035986;28;876;-86
2020/12/20 12:48:17;;;;;;;;;;;;;;;;;;5034549;28;1313;-87
2020/12/20 12:50:42;;;;;;;;;;;;;;;;;;5035659;28;821;-86
2020/12/20 12:53:08;;;;;;;;;;;;;;;;;;5034498;28;1351;-90
2020/12/20 12:55:33;;;;;;;;;;;;;;;;;;5036066;28;814;-88
2020/12/20 12:57:58;;;;;;;;;;;;;;;;;;5035726;28;857;-87
2020/12/20 13:00:24;;;;;;;;;;;;;;;;;;5034133;28;1967;-91
2020/12/20 13:02:49;;;;;;;;;;;;;;;;;;5034428;28;1393;-88
2020/12/20 13:05:15;;;;;;;;;;;;;;;;;;5034357;28;1246;-87
2020/12/20 13:07:40;;;;;;;;;;;;;;;;;;5034273;28;1393;-88
2020/12/20 13:10:05;;;;;;;;;;;;;;;;;;5034538;28;1114;-89
2020/12/20 13:12:31;;;;;;;;;;;;;;;;;;5034416;28;1321;-87
2020/12/20 13:14:56;;;;;;;;;;;;;;;;;;5035705;28;884;-88
2020/12/20 13:17:21;;;;;;;;;;;;;;;;;;5034248;28;1260;-90
2020/12/20 13:19:46;;;;;;;;;;;;;;;;;;5034003;28;2331;-91
2020/12/20 13:22:12;;;;;;;;;;;;;;;;;;5034158;28;1408;-88
2020/12/20 13:24:37;;;;;;;;;;;;;;;;;;5035420;28;822;-90
2020/12/20 13:27:02;;;;;;;;;;;;;;;;;;5034255;28;1328;-92
2020/12/20 13:29:27;;;;;;;;;;;;;;;;;;5034000;28;1102;-89
2020/12/20 13:31:53;;;;;;;;;;;;;;;;;;5033932;28;1323;-90
2020/12/20 13:34:18;;;;;;;;;;;;;;;;;;5033926;28;1200;-92
2020/12/20 13:36:43;;;;;;;;;;;;;;;;;;5034311;28;1228;-87
2020/12/20 13:39:09;;;;;;;;;;;;;;;;;;5035340;28;1963;-87
2020/12/20 13:41:35;;;;;;;;;;;;;;;;;;5033546;28;1305;-87
2020/12/20 13:44:00;;;;;;;;;;;;;;;;;;5033958;28;1541;-87
2020/12/20 13:46:25;;;;;;;;;;;;;;;;;;5035213;28;830;-87
2020/12/20 13:48:50;;;;;;;;;;;;;;;;;;5033174;28;1310;-86
2020/12/20 13:51:16;;;;;;;;;;;;;;;;;;5034896;28;1369;-86
2020/12/20 13:53:41;;;;;;;;;;;;;;;;;;5033588;28;1025;-87
2020/12/20 13:56:07;;;;;;;;;;;;;;;;;;5033714;28;1216;-87
2020/12/20 13:58:32;;;;;;;;;;;;;;;;;;5034625;28;1894;-87
2020/12/20 14:00:57;;;;;;;;;;;;;;;;;;5032196;28;1304;-87
2020/12/20 14:03:23;;;;;;;;;;;;;;;;;;5034735;28;1331;-86
2020/12/20 14:05:48;;;;;;;;;;;;;;;;;;5033488;28;1132;-87
2020/12/20 14:08:13;;;;;;;;;;;;;;;;;;5033390;28;865;-87
2020/12/20 14:10:39;;;;;;;;;;;;;;;;;;5033044;28;1340;-86
2020/12/20 14:13:04;;;;;;;;;;;;;;;;;;5034422;28;1296;-86
2020/12/20 14:15:30;;;;;;;;;;;;;;;;;;5033281;28;886;-87
2020/12/20 14:17:55;;;;;;;;;;;;;;;;;;5033563;28;896;-87
2020/12/20 14:20:20;;;;;;;;;;;;;;;;;;5034308;28;1886;-87
2020/12/20 14:22:46;;;;;;;;;;;;;;;;;;5032958;28;1425;-87
2020/12/20 14:25:11;;;;;;;;;;;;;;;;;;5032095;28;1365;-86
2020/12/20 14:27:36;;;;;;;;;;;;;;;;;;5033113;28;1325;-87
2020/12/20 14:30:02;;;;;;;;;;;;;;;;;;5032822;28;992;-86
2020/12/20 14:32:27;;;;;;;;;;;;;;;;;;5034174;28;1333;-87
2020/12/20 14:34:53;;;;;;;;;;;;;;;;;;5019720;28;1611;-86
2020/12/20 14:37:18;;;;;;;;;;;;;;;;;;5031866;28;1330;-86
2020/12/20 14:39:43;;;;;;;;;;;;;;;;;;5021098;28;1894;-86
2020/12/20 14:42:09;;;;;;;;;;;;;;;;;;5029867;28;1487;-87
2020/12/20 14:44:35;;;;;;;;;;;;;;;;;;5014658;28;806;-86
2020/12/20 14:47:00;;;;;;;;;;;;;;;;;;5029718;28;936;-87
2020/12/20 14:49:25;;;;;;;;;;;;;;;;;;5033042;28;1472;-87
2020/12/20 14:51:50;;;;;;;;;;;;;;;;;;5029489;28;1294;-86
2020/12/20 14:54:16;;;;;;;;;;;;;;;;;;5013155;28;1212;-86
2020/12/20 14:56:41;;;;;;;;;;;;;;;;;;5013216;28;1295;-86
2020/12/20 14:59:06;;;;;;;;;;;;;;;;;;5024904;28;1886;-87
2020/12/20 15:01:32;;;;;;;;;;;;;;;;;;5034388;28;1302;-87
2020/12/20 15:03:57;;;;;;;;;;;;;;;;;;5038261;28;917;-87
2020/12/20 15:06:22;;;;;;;;;;;;;;;;;;5036470;28;1413;-86
2020/12/20 15:08:48;;;;;;;;;;;;;;;;;;5038330;28;833;-87
2020/12/20 15:11:13;;;;;;;;;;;;;;;;;;5037500;28;1364;-86
2020/12/20 15:13:39;;;;;;;;;;;;;;;;;;5036824;28;1208;-87
2020/12/20 15:16:05;;;;;;;;;;;;;;;;;;5037729;28;818;-86
2020/12/20 15:18:31;;;;;;;;;;;;;;;;;;5053503;28;2017;-87
2020/12/20 15:20:56;;;;;;;;;;;;;;;;;;5037602;28;806;-87
2020/12/20 15:23:21;;;;;;;;;;;;;;;;;;5037480;28;1290;-85
2020/12/20 15:25:46;;;;;;;;;;;;;;;;;;5036488;28;1186;-86
2020/12/20 15:28:12;;;;;;;;;;;;;;;;;;5036186;28;1121;-87
2020/12/20 15:30:37;;;;;;;;;;;;;;;;;;5037300;28;786;-86
2020/12/20 15:33:13;;;;;;;;;;;;;;;;;;5036372;28;1357;-87
2020/12/20 15:35:41;;;;;;;;;;;;;;;;;;5036013;28;1532;-87
2020/12/20 15:38:07;;;;;;;;;;;;;;;;;;5036005;28;902;-86
2020/12/20 15:40:33;;;;;;;;;;;;;;;;;;5035673;28;1885;-86
2020/12/20 15:42:58;;;;;;;;;;;;;;;;;;5035880;28;1357;-87
2020/12/20 15:45:24;;;;;;;;;;;;;;;;;;5035768;28;1029;-87
2020/12/20 15:47:49;;;;;;;;;;;;;;;;;;5036460;28;1259;-86
2020/12/20 15:50:14;;;;;;;;;;;;;;;;;;5035987;28;1294;-86
2020/12/20 15:52:43;;;;;;;;;;;;;;;;;;5035992;28;1345;-86
2020/12/20 15:55:08;;;;;;;;;;;;;;;;;;5036944;28;837;-86
2020/12/20 15:57:34;;;;;;;;;;;;;;;;;;5035798;28;819;-86
2020/12/20 15:59:59;;;;;;;;;;;;;;;;;;5035432;28;1959;-87
2020/12/20 16:02:24;;;;;;;;;;;;;;;;;;5035797;28;1483;-86
2020/12/20 16:04:49;;;;;;;;;;;;;;;;;;5036698;28;794;-87
2020/12/20 16:07:16;;;;;;;;;;;;;;;;;;5036624;28;794;-86
2020/12/20 16:09:41;;;;;;;;;;;;;;;;;;5035155;28;1498;-87
2020/12/20 16:12:06;;;;;;;;;;;;;;;;;;5035254;28;1369;-86
2020/12/20 16:14:32;;;;;;;;;;;;;;;;;;5035335;28;1568;-87
2020/12/20 16:16:57;;;;;;;;;;;;;;;;;;5036564;28;885;-86
2020/12/20 16:19:22;;;;;;;;;;;;;;;;;;5036570;28;1886;-86
2020/12/20 16:21:47;;;;;;;;;;;;;;;;;;5036254;28;1326;-87
2020/12/20 16:24:13;;;;;;;;;;;;;;;;;;5035535;28;1213;-86
2020/12/20 16:26:39;;;;;;;;;;;;;;;;;;5036444;28;974;-86
2020/12/20 16:29:04;;;;;;;;;;;;;;;;;;5035285;28;1146;-86
2020/12/20 16:31:38;;;;;;;;;;;;;;;;;;5034701;28;1357;-86
2020/12/20 16:34:04;;;;;;;;;;;;;;;;;;5036660;28;881;-86
2020/12/20 16:36:29;;;;;;;;;;;;;;;;;;5036246;28;810;-88
2020/12/20 16:38:54;;;;;;;;;;;;;;;;;;5033816;28;1963;-87
2020/12/20 16:41:20;;;;;;;;;;;;;;;;;;5035053;28;1358;-89
2020/12/20 16:43:45;;;;;;;;;;;;;;;;;;5035168;28;1047;-86
2020/12/20 16:46:11;;;;;;;;;;;;;;;;;;5034799;28;1358;-84
2020/12/20 16:48:39;;;;;;;;;;;;;;;;;;5034763;28;1569;-86
2020/12/20 16:51:05;;;;;;;;;;;;;;;;;;5034661;28;1244;-87
2020/12/20 16:53:31;;;;;;;;;;;;;;;;;;5035833;28;1362;-86
2020/12/20 16:55:56;;;;;;;;;;;;;;;;;;5034768;28;1266;-87
2020/12/20 16:58:23;;;;;;;;;;;;;;;;;;5035970;28;897;-86
2020/12/20 17:00:49;;;;;;;;;;;;;;;;;;5035994;28;1894;-87